createdAt,value
2019-02-07T00:00:22.838Z,0
2019-02-07T00:01:23.412Z,0
2019-02-07T00:02:23.986Z,0
2019-02-07T00:03:24.904Z,0
2019-02-07T00:04:25.476Z,0
2019-02-07T00:05:26.049Z,0
2019-02-07T00:06:26.620Z,0
2019-02-07T00:07:27.191Z,0
2019-02-07T00:08:27.765Z,0
2019-02-07T00:09:28.338Z,0
2019-02-07T00:10:28.961Z,0
2019-02-07T00:11:29.753Z,0
2019-02-07T00:12:30.330Z,0
2019-02-07T00:13:30.904Z,0
2019-02-07T00:14:39.478Z,0
2019-02-07T00:15:33.047Z,0
2019-02-07T00:16:33.619Z,0
2019-02-07T00:17:34.193Z,0
2019-02-07T00:18:34.766Z,0
2019-02-07T00:19:35.394Z,0
2019-02-07T00:20:35.963Z,0
2019-02-07T00:21:36.536Z,0
2019-02-07T00:22:39.228Z,0
2019-02-07T00:23:38.672Z,0
2019-02-07T00:24:42.908Z,0
2019-02-07T00:25:41.004Z,0
2019-02-07T00:26:41.575Z,0
2019-02-07T00:27:42.204Z,0
2019-02-07T00:28:43.076Z,0
2019-02-07T00:29:43.650Z,0
2019-02-07T00:30:49.277Z,0
2019-02-07T00:31:49.901Z,0
2019-02-07T00:32:50.473Z,0
2019-02-07T00:33:51.147Z,0
2019-02-07T00:34:51.722Z,0
2019-02-07T00:35:52.300Z,0
2019-02-07T00:36:52.915Z,0
2019-02-07T00:37:53.864Z,0
2019-02-07T00:38:54.441Z,0
2019-02-07T00:39:55.015Z,0
2019-02-07T00:40:55.589Z,0
2019-02-07T00:41:56.163Z,0
2019-02-07T00:42:56.738Z,0
2019-02-07T00:43:57.310Z,0
2019-02-07T00:44:57.885Z,0
2019-02-07T00:45:58.457Z,0
2019-02-07T00:46:59.362Z,0
2019-02-07T00:47:59.936Z,0
2019-02-07T00:49:00.508Z,0
2019-02-07T00:50:01.124Z,0
2019-02-07T00:51:01.696Z,0
2019-02-07T00:52:02.318Z,0
2019-02-07T00:53:02.894Z,0
2019-02-07T00:54:03.466Z,0
2019-02-07T00:55:04.256Z,0
2019-02-07T00:56:04.828Z,0
2019-02-07T00:57:05.402Z,0
2019-02-07T00:58:05.974Z,0
2019-02-07T00:59:06.547Z,0
2019-02-07T01:00:07.118Z,0
2019-02-07T01:01:07.692Z,0
2019-02-07T01:02:08.314Z,0
2019-02-07T01:03:08.955Z,0
2019-02-07T01:04:09.530Z,0
2019-02-07T01:05:10.101Z,0
2019-02-07T01:06:10.673Z,0
2019-02-07T01:07:11.245Z,0
2019-02-07T01:08:11.822Z,0
2019-02-07T01:09:12.389Z,0
2019-02-07T01:10:12.960Z,0
2019-02-07T01:11:13.582Z,0
2019-02-07T01:12:14.512Z,0
2019-02-07T01:13:15.134Z,0
2019-02-07T01:14:15.707Z,0
2019-02-07T01:15:16.281Z,0
2019-02-07T01:16:16.855Z,0
2019-02-07T01:17:17.427Z,0
2019-02-07T01:18:18.001Z,0
2019-02-07T01:19:18.573Z,0
2019-02-07T01:20:19.343Z,0
2019-02-07T01:21:19.918Z,0
2019-02-07T01:22:20.492Z,0
2019-02-07T01:23:21.065Z,0
2019-02-07T01:24:21.635Z,0
2019-02-07T01:25:22.212Z,0
2019-02-07T01:26:22.835Z,0
2019-02-07T01:27:23.414Z,0
2019-02-07T01:28:24.226Z,0
2019-02-07T01:29:24.802Z,0
2019-02-07T01:30:25.373Z,0
2019-02-07T01:31:25.947Z,0
2019-02-07T01:32:26.522Z,0
2019-02-07T01:33:27.093Z,0
2019-02-07T01:34:27.667Z,0
2019-02-07T01:35:28.242Z,0
2019-02-07T01:36:28.814Z,0
2019-02-07T01:37:29.385Z,0
2019-02-07T01:38:29.956Z,0
2019-02-07T01:39:30.531Z,0
2019-02-07T01:40:31.103Z,0
2019-02-07T01:41:31.677Z,0
2019-02-07T01:42:32.288Z,0
2019-02-07T01:43:32.913Z,0
2019-02-07T01:44:33.484Z,0
2019-02-07T01:45:34.356Z,0
2019-02-07T01:46:34.929Z,0
2019-02-07T01:47:35.499Z,0
2019-02-07T01:48:36.122Z,0
2019-02-07T01:49:36.694Z,0
2019-02-07T01:50:37.268Z,0
2019-02-07T01:51:37.839Z,0
2019-02-07T01:52:38.414Z,0
2019-02-07T01:53:39.299Z,0
2019-02-07T01:54:39.921Z,0
2019-02-07T01:55:40.495Z,0
2019-02-07T01:56:41.068Z,0
2019-02-07T01:57:41.642Z,0
2019-02-07T01:58:42.214Z,0
2019-02-07T01:59:42.790Z,0
2019-02-07T02:00:43.363Z,0
2019-02-07T02:01:44.199Z,0
2019-02-07T02:02:44.771Z,0
2019-02-07T02:03:45.346Z,0
2019-02-07T02:04:45.919Z,0
2019-02-07T02:05:46.735Z,0
2019-02-07T02:06:47.307Z,0
2019-02-07T02:07:47.933Z,0
2019-02-07T02:08:48.506Z,0
2019-02-07T02:09:49.128Z,0
2019-02-07T02:10:49.698Z,0
2019-02-07T02:11:50.269Z,0
2019-02-07T02:12:50.840Z,0
2019-02-07T02:13:51.413Z,0
2019-02-07T02:14:51.987Z,0
2019-02-07T02:15:52.558Z,0
2019-02-07T02:16:53.130Z,0
2019-02-07T02:17:53.702Z,0
2019-02-07T02:18:54.617Z,0
2019-02-07T02:19:55.189Z,0
2019-02-07T02:20:55.760Z,0
2019-02-07T02:21:56.334Z,0
2019-02-07T02:22:56.904Z,0
2019-02-07T02:23:57.478Z,0
2019-02-07T02:24:58.052Z,0
2019-02-07T02:25:58.627Z,0
2019-02-07T02:26:59.527Z,0
2019-02-07T02:28:00.100Z,0
2019-02-07T02:29:00.675Z,0
2019-02-07T02:30:01.315Z,0
2019-02-07T02:31:01.872Z,0
2019-02-07T02:32:02.446Z,0
2019-02-07T02:33:03.021Z,0
2019-02-07T02:34:03.593Z,0
2019-02-07T02:35:04.200Z,0
2019-02-07T02:36:04.776Z,0
2019-02-07T02:37:05.350Z,0
2019-02-07T02:38:05.923Z,0
2019-02-07T02:39:06.495Z,0
2019-02-07T02:40:07.071Z,0
2019-02-07T02:41:07.683Z,0
2019-02-07T02:42:08.256Z,0
2019-02-07T02:43:08.879Z,0
2019-02-07T02:44:09.450Z,0
2019-02-07T02:45:10.171Z,0
2019-02-07T02:46:10.742Z,0
2019-02-07T02:47:11.314Z,0
2019-02-07T02:48:11.884Z,0
2019-02-07T02:49:12.458Z,0
2019-02-07T02:50:13.030Z,0
2019-02-07T02:51:13.644Z,0
2019-02-07T02:52:14.493Z,0
2019-02-07T02:53:15.078Z,0
2019-02-07T02:54:15.739Z,0
2019-02-07T02:55:16.312Z,0
2019-02-07T02:56:16.885Z,0
2019-02-07T02:57:17.503Z,0
2019-02-07T02:58:18.117Z,0
2019-02-07T02:59:18.742Z,0
2019-02-07T03:00:19.505Z,0
2019-02-07T03:01:20.077Z,0
2019-02-07T03:02:20.654Z,0
2019-02-07T03:03:21.273Z,0
2019-02-07T03:04:21.844Z,0
2019-02-07T03:05:22.417Z,0
2019-02-07T03:06:22.990Z,0
2019-02-07T03:07:23.575Z,0
2019-02-07T03:08:24.133Z,0
2019-02-07T03:09:24.707Z,0
2019-02-07T03:10:25.278Z,0
2019-02-07T03:11:25.855Z,0
2019-02-07T03:12:26.468Z,0
2019-02-07T03:13:27.039Z,0
2019-02-07T03:14:27.612Z,0
2019-02-07T03:15:28.187Z,0
2019-02-07T03:16:28.813Z,0
2019-02-07T03:17:29.700Z,0
2019-02-07T03:18:30.272Z,0
2019-02-07T03:19:30.895Z,0
2019-02-07T03:20:31.469Z,0
2019-02-07T03:21:32.039Z,0
2019-02-07T03:22:32.611Z,0
2019-02-07T03:23:33.234Z,0
2019-02-07T03:24:33.805Z,0
2019-02-07T03:25:34.667Z,0
2019-02-07T03:26:35.239Z,0
2019-02-07T03:27:35.810Z,0
2019-02-07T03:28:36.389Z,0
2019-02-07T03:29:37.077Z,0
2019-02-07T03:30:37.653Z,0
2019-02-07T03:31:38.232Z,0
2019-02-07T03:32:38.806Z,0
2019-02-07T03:33:39.371Z,0
2019-02-07T03:34:39.946Z,0
2019-02-07T03:35:40.570Z,0
2019-02-07T03:36:41.142Z,0
2019-02-07T03:37:41.715Z,0
2019-02-07T03:38:42.289Z,0
2019-02-07T03:39:42.902Z,0
2019-02-07T03:40:43.475Z,0
2019-02-07T03:41:44.098Z,0
2019-02-07T03:42:45.043Z,0
2019-02-07T03:43:45.615Z,0
2019-02-07T03:44:46.187Z,0
2019-02-07T03:45:46.759Z,0
2019-02-07T03:46:47.329Z,0
2019-02-07T03:47:47.901Z,0
2019-02-07T03:48:48.475Z,0
2019-02-07T03:49:49.047Z,0
2019-02-07T03:50:49.806Z,0
2019-02-07T03:51:50.405Z,0
2019-02-07T03:52:51.033Z,0
2019-02-07T03:53:51.602Z,0
2019-02-07T03:54:52.175Z,0
2019-02-07T03:55:52.745Z,0
2019-02-07T03:56:53.367Z,0
2019-02-07T03:57:53.941Z,0
2019-02-07T03:58:54.676Z,0
2019-02-07T03:59:55.247Z,0
2019-02-07T04:00:55.822Z,0
2019-02-07T04:01:56.391Z,0
2019-02-07T04:02:56.964Z,0
2019-02-07T04:03:57.543Z,0
2019-02-07T04:04:58.258Z,0
2019-02-07T04:05:58.786Z,0
2019-02-07T04:06:59.360Z,0
2019-02-07T04:08:00.205Z,0
2019-02-07T04:09:00.828Z,0
2019-02-07T04:10:01.400Z,0
2019-02-07T04:11:01.974Z,0
2019-02-07T04:12:02.595Z,0
2019-02-07T04:13:03.169Z,0
2019-02-07T04:14:03.744Z,0
2019-02-07T04:15:04.316Z,0
2019-02-07T04:16:14.682Z,0
2019-02-07T04:17:06.730Z,0
2019-02-07T04:18:07.301Z,0
2019-02-07T04:19:07.874Z,0
2019-02-07T04:20:08.496Z,0
2019-02-07T04:21:09.067Z,0
2019-02-07T04:22:09.642Z,0
2019-02-07T04:23:10.214Z,0
2019-02-07T04:24:10.790Z,0
2019-02-07T04:25:11.855Z,0
2019-02-07T04:26:12.427Z,0
2019-02-07T04:27:12.999Z,0
2019-02-07T04:28:13.579Z,0
2019-02-07T04:29:14.190Z,0
2019-02-07T04:30:14.804Z,0
2019-02-07T04:31:15.375Z,0
2019-02-07T04:32:16.002Z,0
2019-02-07T04:33:16.821Z,0
2019-02-07T04:34:17.392Z,0
2019-02-07T04:35:17.966Z,0
2019-02-07T04:36:18.587Z,0
2019-02-07T04:37:19.191Z,0
2019-02-07T04:38:19.730Z,0
2019-02-07T04:39:20.301Z,0
2019-02-07T04:40:20.874Z,0
2019-02-07T04:41:21.454Z,0
2019-02-07T04:42:22.121Z,0
2019-02-07T04:43:22.694Z,0
2019-02-07T04:44:23.268Z,0
2019-02-07T04:45:23.840Z,0
2019-02-07T04:46:27.128Z,0
2019-02-07T04:47:25.986Z,0
2019-02-07T04:48:26.552Z,0
2019-02-07T04:49:27.126Z,0
2019-02-07T04:50:27.736Z,0
2019-02-07T04:51:28.309Z,0
2019-02-07T04:52:28.881Z,0
2019-02-07T04:53:29.457Z,0
2019-02-07T04:54:30.027Z,0
2019-02-07T04:55:30.602Z,0
2019-02-07T04:56:31.173Z,0
2019-02-07T04:57:31.745Z,0
2019-02-07T04:58:32.459Z,0
2019-02-07T04:59:33.033Z,0
2019-02-07T05:00:33.605Z,0
2019-02-07T05:01:34.180Z,0
2019-02-07T05:02:34.754Z,0
2019-02-07T05:03:35.325Z,0
2019-02-07T05:04:35.950Z,0
2019-02-07T05:05:36.573Z,0
2019-02-07T05:06:37.153Z,0
2019-02-07T05:07:37.770Z,0
2019-02-07T05:08:38.328Z,0
2019-02-07T05:09:38.901Z,0
2019-02-07T05:10:39.472Z,0
2019-02-07T05:11:40.043Z,0
2019-02-07T05:12:40.616Z,0
2019-02-07T05:13:41.190Z,0
2019-02-07T05:14:41.763Z,0
2019-02-07T05:15:42.603Z,0
2019-02-07T05:16:43.808Z,0
2019-02-07T05:17:44.376Z,0
2019-02-07T05:18:44.948Z,0
2019-02-07T05:19:45.521Z,0
2019-02-07T05:20:46.093Z,0
2019-02-07T05:21:46.668Z,0
2019-02-07T05:22:47.242Z,0
2019-02-07T05:23:48.078Z,0
2019-02-07T05:24:48.651Z,0
2019-02-07T05:25:49.223Z,0
2019-02-07T05:26:49.845Z,0
2019-02-07T05:27:50.419Z,0
2019-02-07T05:28:50.993Z,0
2019-02-07T05:29:51.567Z,0
2019-02-07T05:30:52.182Z,0
2019-02-07T05:31:52.911Z,0
2019-02-07T05:32:53.484Z,0
2019-02-07T05:33:54.064Z,0
2019-02-07T05:34:54.679Z,0
2019-02-07T05:35:55.253Z,0
2019-02-07T05:36:55.827Z,0
2019-02-07T05:37:56.401Z,0
2019-02-07T05:38:56.980Z,0
2019-02-07T05:39:57.590Z,0
2019-02-07T05:40:58.171Z,0
2019-02-07T05:41:58.786Z,0
2019-02-07T05:42:59.359Z,0
2019-02-07T05:43:59.928Z,0
2019-02-07T05:45:00.502Z,0
2019-02-07T05:46:01.154Z,0
2019-02-07T05:47:01.733Z,0
2019-02-07T05:48:02.311Z,0
2019-02-07T05:49:02.916Z,0
2019-02-07T05:50:03.487Z,0
2019-02-07T05:51:04.111Z,0
2019-02-07T05:52:04.681Z,0
2019-02-07T05:53:05.256Z,0
2019-02-07T05:54:05.825Z,0
2019-02-07T05:55:06.401Z,0
2019-02-07T05:56:06.970Z,0
2019-02-07T05:57:07.817Z,0
2019-02-07T05:58:08.389Z,0
2019-02-07T05:59:09.011Z,0
2019-02-07T06:00:09.585Z,0
2019-02-07T06:01:10.162Z,0
2019-02-07T06:02:10.739Z,0
2019-02-07T06:03:11.308Z,0
2019-02-07T06:04:11.938Z,0
2019-02-07T06:05:12.717Z,0
2019-02-07T06:06:13.290Z,0
2019-02-07T06:07:13.864Z,0
2019-02-07T06:08:14.480Z,0
2019-02-07T06:09:15.101Z,0
2019-02-07T06:10:15.675Z,0
2019-02-07T06:11:16.246Z,0
2019-02-07T06:12:16.819Z,0
2019-02-07T06:13:17.391Z,0
2019-02-07T06:14:17.968Z,0
2019-02-07T06:15:18.558Z,0
2019-02-07T06:16:19.110Z,0
2019-02-07T06:17:19.682Z,0
2019-02-07T06:18:20.255Z,0
2019-02-07T06:19:20.877Z,0
2019-02-07T06:20:21.450Z,0
2019-02-07T06:21:22.020Z,0
2019-02-07T06:22:22.985Z,0
2019-02-07T06:23:23.558Z,0
2019-02-07T06:24:24.131Z,0
2019-02-07T06:25:24.705Z,0
2019-02-07T06:26:25.278Z,0
2019-02-07T06:27:25.850Z,0
2019-02-07T06:28:26.472Z,0
2019-02-07T06:29:27.044Z,0
2019-02-07T06:30:27.841Z,0
2019-02-07T06:31:28.516Z,0
2019-02-07T06:32:29.190Z,0
2019-02-07T06:33:29.805Z,0
2019-02-07T06:34:30.377Z,0
2019-02-07T06:35:30.947Z,0
2019-02-07T06:36:31.521Z,0
2019-02-07T06:37:32.091Z,0
2019-02-07T06:38:32.664Z,0
2019-02-07T06:39:33.497Z,0
2019-02-07T06:40:34.072Z,0
2019-02-07T06:41:34.645Z,0
2019-02-07T06:42:35.218Z,0
2019-02-07T06:43:35.815Z,0
2019-02-07T06:44:36.407Z,0
2019-02-07T06:45:36.978Z,0
2019-02-07T06:46:37.553Z,0
2019-02-07T06:47:38.440Z,0
2019-02-07T06:48:39.065Z,0
2019-02-07T06:49:39.636Z,0
2019-02-07T06:50:40.207Z,0
2019-02-07T06:51:40.779Z,0
2019-02-07T06:52:41.351Z,0
2019-02-07T06:53:41.972Z,0
2019-02-07T06:54:42.544Z,0
2019-02-07T06:55:43.171Z,0
2019-02-07T06:56:43.741Z,0
2019-02-07T06:57:44.312Z,0
2019-02-07T06:58:44.887Z,0
2019-02-07T06:59:45.457Z,0
2019-02-07T07:00:46.030Z,0
2019-02-07T07:01:46.601Z,0
2019-02-07T07:02:47.177Z,0
2019-02-07T07:03:47.746Z,0
2019-02-07T07:04:48.572Z,0
2019-02-07T07:05:49.145Z,0
2019-02-07T07:06:49.721Z,0
2019-02-07T07:07:50.291Z,0
2019-02-07T07:08:50.865Z,0
2019-02-07T07:09:51.438Z,0
2019-02-07T07:10:52.009Z,0
2019-02-07T07:11:52.581Z,0
2019-02-07T07:12:53.275Z,0
2019-02-07T07:13:53.850Z,0
2019-02-07T07:14:54.423Z,0
2019-02-07T07:15:55.147Z,0
2019-02-07T07:16:55.759Z,0
2019-02-07T07:17:56.336Z,0
2019-02-07T07:18:56.949Z,0
2019-02-07T07:19:57.705Z,0
2019-02-07T07:20:59.519Z,0
2019-02-07T07:21:59.799Z,0
2019-02-07T07:23:00.370Z,0
2019-02-07T07:24:00.942Z,0
2019-02-07T07:25:01.515Z,0
2019-02-07T07:26:02.086Z,0
2019-02-07T07:27:02.860Z,0
2019-02-07T07:28:03.434Z,0
2019-02-07T07:29:04.005Z,0
2019-02-07T07:30:04.578Z,0
2019-02-07T07:31:05.150Z,0
2019-02-07T07:32:05.723Z,0
2019-02-07T07:33:06.301Z,0
2019-02-07T07:34:06.871Z,0
2019-02-07T07:35:07.496Z,0
2019-02-07T07:36:08.114Z,0
2019-02-07T07:37:08.683Z,0
2019-02-07T07:38:09.259Z,0
2019-02-07T07:39:10.208Z,0
2019-02-07T07:40:10.780Z,0
2019-02-07T07:41:11.352Z,0
2019-02-07T07:42:11.926Z,0
2019-02-07T07:43:12.497Z,0
2019-02-07T07:44:13.119Z,0
2019-02-07T07:45:13.694Z,0
2019-02-07T07:46:14.269Z,0
2019-02-07T07:47:14.876Z,0
2019-02-07T07:48:15.444Z,0
2019-02-07T07:49:16.014Z,0
2019-02-07T07:50:16.586Z,0
2019-02-07T07:51:17.156Z,0
2019-02-07T07:52:17.728Z,0
2019-02-07T07:53:18.299Z,0
2019-02-07T07:54:20.505Z,0
2019-02-07T07:55:20.436Z,0
2019-02-07T07:56:21.310Z,0
2019-02-07T07:57:21.931Z,0
2019-02-07T07:58:22.652Z,0
2019-02-07T07:59:23.274Z,0
2019-02-07T08:00:23.848Z,0
2019-02-07T08:01:24.429Z,0
2019-02-07T08:02:24.995Z,0
2019-02-07T08:03:25.568Z,0
2019-02-07T08:04:26.340Z,0
2019-02-07T08:05:26.913Z,0
2019-02-07T08:06:27.485Z,0
2019-02-07T08:07:28.057Z,0
2019-02-07T08:08:28.629Z,0
2019-02-07T08:09:29.202Z,0
2019-02-07T08:10:29.773Z,0
2019-02-07T08:11:30.346Z,0
2019-02-07T08:12:30.919Z,0
2019-02-07T08:13:31.490Z,0
2019-02-07T08:14:32.064Z,0
2019-02-07T08:15:32.633Z,0
2019-02-07T08:16:33.206Z,0
2019-02-07T08:17:33.827Z,0
2019-02-07T08:18:34.453Z,0
2019-02-07T08:19:35.067Z,0
2019-02-07T08:20:35.640Z,0
2019-02-07T08:21:37.205Z,0
2019-02-07T08:22:37.777Z,0
2019-02-07T08:23:38.394Z,0
2019-02-07T08:24:38.968Z,0
2019-02-07T08:25:39.540Z,8
2019-02-07T08:26:40.114Z,8
2019-02-07T08:27:40.684Z,8
2019-02-07T08:28:41.254Z,8
2019-02-07T08:29:41.983Z,0
2019-02-07T08:30:42.556Z,0
2019-02-07T08:31:43.178Z,0
2019-02-07T08:32:43.755Z,0
2019-02-07T08:33:44.326Z,0
2019-02-07T08:34:44.897Z,0
2019-02-07T08:35:45.471Z,0
2019-02-07T08:36:46.042Z,0
2019-02-07T08:37:46.616Z,0
2019-02-07T08:38:49.856Z,0
2019-02-07T08:39:49.061Z,0
2019-02-07T08:40:49.632Z,0
2019-02-07T08:41:50.205Z,0
2019-02-07T08:42:50.779Z,0
2019-02-07T08:43:51.353Z,0
2019-02-07T08:44:51.960Z,0
2019-02-07T08:45:52.492Z,0
2019-02-07T08:46:53.319Z,0
2019-02-07T08:47:58.578Z,0
2019-02-07T08:48:55.443Z,0
2019-02-07T08:49:56.237Z,0
2019-02-07T08:50:56.777Z,0
2019-02-07T08:51:57.350Z,0
2019-02-07T08:52:57.921Z,0
2019-02-07T08:53:58.532Z,0
2019-02-07T08:54:59.065Z,4
2019-02-07T08:56:00.016Z,4
2019-02-07T08:57:00.626Z,4
2019-02-07T08:58:01.200Z,4
2019-02-07T08:59:01.772Z,4
2019-02-07T09:00:02.344Z,4
2019-02-07T09:01:02.916Z,4
2019-02-07T09:02:03.488Z,4
2019-02-07T09:03:04.060Z,4
2019-02-07T09:04:04.918Z,4
2019-02-07T09:05:05.489Z,4
2019-02-07T09:06:06.109Z,4
2019-02-07T09:07:06.679Z,4
2019-02-07T09:08:07.299Z,4
2019-02-07T09:09:07.869Z,4
2019-02-07T09:10:08.444Z,4
2019-02-07T09:11:09.018Z,4
2019-02-07T09:12:09.668Z,4
2019-02-07T09:13:10.240Z,4
2019-02-07T09:14:10.816Z,4
2019-02-07T09:15:11.387Z,4
2019-02-07T09:16:11.997Z,4
2019-02-07T09:17:14.453Z,4
2019-02-07T09:18:14.134Z,4
2019-02-07T09:19:14.750Z,4
2019-02-07T09:20:15.325Z,4
2019-02-07T09:21:16.132Z,8
2019-02-07T09:22:16.704Z,8
2019-02-07T09:23:17.275Z,4
2019-02-07T09:24:17.847Z,4
2019-02-07T09:25:18.418Z,4
2019-02-07T09:26:18.989Z,4
2019-02-07T09:27:19.610Z,4
2019-02-07T09:28:20.184Z,4
2019-02-07T09:29:20.857Z,4
2019-02-07T09:30:21.428Z,4
2019-02-07T09:31:21.999Z,8
2019-02-07T09:32:22.572Z,4
2019-02-07T09:33:23.142Z,8
2019-02-07T09:34:23.714Z,8
2019-02-07T09:35:24.435Z,8
2019-02-07T09:36:25.006Z,4
2019-02-07T09:37:25.577Z,4
2019-02-07T09:38:26.427Z,4
2019-02-07T09:39:26.997Z,8
2019-02-07T09:40:27.571Z,8
2019-02-07T09:41:28.192Z,4
2019-02-07T09:42:28.761Z,4
2019-02-07T09:43:29.332Z,8
2019-02-07T09:44:29.904Z,8
2019-02-07T09:45:30.474Z,8
2019-02-07T09:46:31.289Z,4
2019-02-07T09:47:31.913Z,8
2019-02-07T09:48:32.484Z,8
2019-02-07T09:49:33.056Z,12
2019-02-07T09:50:33.626Z,8
2019-02-07T09:51:34.215Z,8
2019-02-07T09:52:34.769Z,8
2019-02-07T09:53:35.340Z,8
2019-02-07T09:54:35.999Z,12
2019-02-07T09:55:36.571Z,12
2019-02-07T09:56:37.194Z,12
2019-02-07T09:57:37.767Z,12
2019-02-07T09:58:38.342Z,12
2019-02-07T09:59:38.968Z,12
2019-02-07T10:00:39.537Z,8
2019-02-07T10:01:40.113Z,12
2019-02-07T10:02:40.686Z,12
2019-02-07T10:03:41.261Z,12
2019-02-07T10:04:41.882Z,12
2019-02-07T10:05:42.506Z,12
2019-02-07T10:06:43.080Z,12
2019-02-07T10:07:43.663Z,12
2019-02-07T10:08:44.237Z,12
2019-02-07T10:09:44.841Z,12
2019-02-07T10:10:45.415Z,12
2019-02-07T10:11:46.277Z,12
2019-02-07T10:12:46.851Z,12
2019-02-07T10:13:47.424Z,8
2019-02-07T10:14:47.997Z,12
2019-02-07T10:15:48.568Z,12
2019-02-07T10:16:49.148Z,12
2019-02-07T10:17:49.713Z,8
2019-02-07T10:18:50.326Z,12
2019-02-07T10:19:51.123Z,4
2019-02-07T10:20:51.746Z,4
2019-02-07T10:21:52.319Z,8
2019-02-07T10:22:52.941Z,8
2019-02-07T10:23:53.515Z,8
2019-02-07T10:24:54.088Z,12
2019-02-07T10:25:54.661Z,12
2019-02-07T10:26:55.288Z,12
2019-02-07T10:27:55.857Z,12
2019-02-07T10:28:56.432Z,8
2019-02-07T10:29:57.093Z,12
2019-02-07T10:30:57.668Z,12
2019-02-07T10:31:58.242Z,12
2019-02-07T10:32:58.817Z,12
2019-02-07T10:33:59.392Z,12
2019-02-07T10:34:59.966Z,12
2019-02-07T10:36:00.539Z,12
2019-02-07T10:37:01.324Z,12
2019-02-07T10:38:01.898Z,12
2019-02-07T10:39:02.472Z,12
2019-02-07T10:40:03.043Z,12
2019-02-07T10:41:03.767Z,12
2019-02-07T10:42:04.390Z,12
2019-02-07T10:43:05.016Z,12
2019-02-07T10:44:05.589Z,12
2019-02-07T10:45:06.340Z,12
2019-02-07T10:46:06.914Z,12
2019-02-07T10:47:07.489Z,12
2019-02-07T10:48:08.062Z,12
2019-02-07T10:49:08.635Z,12
2019-02-07T10:50:09.208Z,12
2019-02-07T10:51:09.781Z,12
2019-02-07T10:52:10.353Z,12
2019-02-07T10:53:10.934Z,12
2019-02-07T10:54:11.500Z,12
2019-02-07T10:55:12.072Z,12
2019-02-07T10:56:12.643Z,12
2019-02-07T10:57:13.216Z,12
2019-02-07T10:58:13.838Z,12
2019-02-07T10:59:14.410Z,8
2019-02-07T11:00:14.983Z,12
2019-02-07T11:01:15.557Z,8
2019-02-07T11:02:16.472Z,12
2019-02-07T11:03:17.096Z,12
2019-02-07T11:04:17.670Z,8
2019-02-07T11:05:18.241Z,4
2019-02-07T11:06:18.812Z,8
2019-02-07T11:07:19.389Z,12
2019-02-07T11:08:19.960Z,8
2019-02-07T11:09:20.537Z,8
2019-02-07T11:10:21.146Z,12
2019-02-07T11:11:21.720Z,12
2019-02-07T11:12:22.291Z,8
2019-02-07T11:13:22.913Z,12
2019-02-07T11:14:23.486Z,12
2019-02-07T11:15:24.064Z,12
2019-02-07T11:16:24.637Z,12
2019-02-07T11:17:25.234Z,12
2019-02-07T11:18:25.788Z,12
2019-02-07T11:19:26.397Z,12
2019-02-07T11:20:26.969Z,12
2019-02-07T11:21:27.593Z,12
2019-02-07T11:22:28.130Z,12
2019-02-07T11:23:28.752Z,12
2019-02-07T11:24:29.325Z,12
2019-02-07T11:25:29.898Z,12
2019-02-07T11:26:30.475Z,12
2019-02-07T11:27:31.276Z,12
2019-02-07T11:28:31.848Z,12
2019-02-07T11:29:32.421Z,12
2019-02-07T11:30:32.995Z,12
2019-02-07T11:31:33.568Z,12
2019-02-07T11:32:34.141Z,12
2019-02-07T11:33:34.717Z,12
2019-02-07T11:34:35.288Z,12
2019-02-07T11:35:35.911Z,12
2019-02-07T11:36:36.487Z,12
2019-02-07T11:37:37.058Z,8
2019-02-07T11:38:37.685Z,12
2019-02-07T11:39:38.259Z,12
2019-02-07T11:40:41.223Z,12
2019-02-07T11:41:40.501Z,12
2019-02-07T11:42:41.078Z,12
2019-02-07T11:43:41.652Z,12
2019-02-07T11:44:42.471Z,16
2019-02-07T11:45:43.048Z,12
2019-02-07T11:46:43.620Z,12
2019-02-07T11:47:44.193Z,16
2019-02-07T11:48:44.810Z,16
2019-02-07T11:49:45.384Z,12
2019-02-07T11:50:45.959Z,12
2019-02-07T11:51:46.530Z,12
2019-02-07T11:52:47.177Z,16
2019-02-07T11:53:47.803Z,12
2019-02-07T11:54:48.415Z,12
2019-02-07T11:55:48.988Z,12
2019-02-07T11:56:49.566Z,16
2019-02-07T11:57:50.228Z,16
2019-02-07T11:58:50.802Z,16
2019-02-07T11:59:51.376Z,16
2019-02-07T12:00:51.999Z,16
2019-02-07T12:01:52.868Z,12
2019-02-07T12:02:53.439Z,16
2019-02-07T12:03:54.016Z,16
2019-02-07T12:04:54.588Z,16
2019-02-07T12:05:55.164Z,20
2019-02-07T12:06:55.736Z,12
2019-02-07T12:07:56.310Z,16
2019-02-07T12:08:56.889Z,16
2019-02-07T12:09:57.539Z,16
2019-02-07T12:10:58.116Z,20
2019-02-07T12:11:58.740Z,20
2019-02-07T12:12:59.365Z,16
2019-02-07T12:13:59.938Z,20
2019-02-07T12:15:00.606Z,16
2019-02-07T12:16:01.149Z,16
2019-02-07T12:17:01.720Z,20
2019-02-07T12:18:02.292Z,16
2019-02-07T12:19:03.196Z,16
2019-02-07T12:20:03.821Z,16
2019-02-07T12:21:04.397Z,24
2019-02-07T12:22:04.972Z,16
2019-02-07T12:23:05.548Z,16
2019-02-07T12:24:06.157Z,16
2019-02-07T12:25:06.731Z,20
2019-02-07T12:26:07.349Z,16
2019-02-07T12:27:08.208Z,20
2019-02-07T12:28:08.783Z,16
2019-02-07T12:29:09.356Z,16
2019-02-07T12:30:09.982Z,16
2019-02-07T12:31:10.755Z,16
2019-02-07T12:32:11.332Z,16
2019-02-07T12:33:11.955Z,16
2019-02-07T12:34:12.529Z,16
2019-02-07T12:35:13.226Z,16
2019-02-07T12:36:13.800Z,12
2019-02-07T12:37:14.374Z,16
2019-02-07T12:38:14.948Z,16
2019-02-07T12:39:15.523Z,16
2019-02-07T12:40:16.096Z,12
2019-02-07T12:41:16.671Z,12
2019-02-07T12:42:17.248Z,12
2019-02-07T12:43:17.820Z,12
2019-02-07T12:44:18.620Z,12
2019-02-07T12:45:19.195Z,12
2019-02-07T12:46:19.771Z,12
2019-02-07T12:47:20.345Z,16
2019-02-07T12:48:20.917Z,16
2019-02-07T12:49:28.927Z,12
2019-02-07T12:50:23.109Z,12
2019-02-07T12:51:23.729Z,12
2019-02-07T12:52:24.453Z,12
2019-02-07T12:53:25.028Z,12
2019-02-07T12:54:25.602Z,12
2019-02-07T12:55:26.875Z,12
2019-02-07T12:56:27.476Z,12
2019-02-07T12:57:28.050Z,12
2019-02-07T12:58:28.624Z,12
2019-02-07T12:59:29.201Z,12
2019-02-07T13:00:29.770Z,12
2019-02-07T13:01:30.565Z,12
2019-02-07T13:02:31.140Z,12
2019-02-07T13:03:31.714Z,12
2019-02-07T13:04:32.291Z,12
2019-02-07T13:05:32.862Z,12
2019-02-07T13:06:33.487Z,12
2019-02-07T13:07:34.058Z,12
2019-02-07T13:08:34.683Z,16
2019-02-07T13:09:35.406Z,12
2019-02-07T13:10:35.980Z,12
2019-02-07T13:11:36.556Z,12
2019-02-07T13:12:37.132Z,12
2019-02-07T13:13:37.721Z,12
2019-02-07T13:14:38.293Z,12
2019-02-07T13:15:38.896Z,12
2019-02-07T13:16:39.443Z,12
2019-02-07T13:17:40.003Z,12
2019-02-07T13:18:40.878Z,12
2019-02-07T13:19:41.481Z,12
2019-02-07T13:20:42.040Z,12
2019-02-07T13:21:42.587Z,12
2019-02-07T13:22:43.183Z,12
2019-02-07T13:23:43.743Z,12
2019-02-07T13:24:44.390Z,12
2019-02-07T13:25:44.981Z,12
2019-02-07T13:26:45.755Z,12
2019-02-07T13:27:46.367Z,12
2019-02-07T13:28:46.920Z,12
2019-02-07T13:29:47.571Z,16
2019-02-07T13:30:48.116Z,16
2019-02-07T13:31:48.770Z,12
2019-02-07T13:32:49.324Z,12
2019-02-07T13:33:49.900Z,12
2019-02-07T13:34:50.476Z,16
2019-02-07T13:35:51.036Z,16
2019-02-07T13:36:51.627Z,16
2019-02-07T13:37:52.187Z,16
2019-02-07T13:38:52.747Z,16
2019-02-07T13:39:53.320Z,16
2019-02-07T13:40:53.898Z,16
2019-02-07T13:41:54.518Z,16
2019-02-07T13:42:55.092Z,12
2019-02-07T13:43:55.970Z,16
2019-02-07T13:44:56.500Z,16
2019-02-07T13:45:57.075Z,16
2019-02-07T13:46:57.649Z,16
2019-02-07T13:47:58.226Z,20
2019-02-07T13:48:58.843Z,16
2019-02-07T13:49:59.417Z,16
2019-02-07T13:50:59.996Z,20
2019-02-07T13:52:00.569Z,20
2019-02-07T13:53:01.146Z,16
2019-02-07T13:54:01.721Z,20
2019-02-07T13:55:02.299Z,20
2019-02-07T13:56:02.870Z,20
2019-02-07T13:57:03.491Z,20
2019-02-07T13:58:04.043Z,20
2019-02-07T13:59:04.615Z,16
2019-02-07T14:00:05.188Z,16
2019-02-07T14:01:06.023Z,20
2019-02-07T14:02:06.597Z,20
2019-02-07T14:03:07.173Z,16
2019-02-07T14:04:07.834Z,16
2019-02-07T14:05:08.365Z,20
2019-02-07T14:06:08.938Z,20
2019-02-07T14:07:09.512Z,20
2019-02-07T14:08:10.084Z,16
2019-02-07T14:09:10.866Z,16
2019-02-07T14:10:11.481Z,20
2019-02-07T14:11:12.057Z,20
2019-02-07T14:12:12.631Z,20
2019-02-07T14:13:13.206Z,20
2019-02-07T14:14:13.779Z,20
2019-02-07T14:15:14.397Z,20
2019-02-07T14:16:14.971Z,20
2019-02-07T14:17:15.603Z,20
2019-02-07T14:18:16.688Z,20
2019-02-07T14:19:17.329Z,20
2019-02-07T14:20:17.900Z,20
2019-02-07T14:21:18.472Z,20
2019-02-07T14:22:19.095Z,20
2019-02-07T14:23:19.670Z,20
2019-02-07T14:24:20.245Z,20
2019-02-07T14:25:20.821Z,20
2019-02-07T14:26:21.668Z,20
2019-02-07T14:27:22.243Z,20
2019-02-07T14:28:22.818Z,20
2019-02-07T14:29:23.440Z,20
2019-02-07T14:30:24.016Z,20
2019-02-07T14:31:24.589Z,20
2019-02-07T14:32:25.164Z,20
2019-02-07T14:33:25.741Z,20
2019-02-07T14:34:26.437Z,20
2019-02-07T14:35:27.012Z,20
2019-02-07T14:36:27.587Z,16
2019-02-07T14:37:28.161Z,16
2019-02-07T14:38:28.737Z,16
2019-02-07T14:39:29.311Z,20
2019-02-07T14:40:29.934Z,20
2019-02-07T14:41:30.561Z,16
2019-02-07T14:42:31.135Z,20
2019-02-07T14:43:31.998Z,20
2019-02-07T14:44:32.573Z,24
2019-02-07T14:45:33.147Z,32
2019-02-07T14:46:33.720Z,32